Time;durP1;ratioP1;P1;durP2;ratioP2;P2;SDS_P1;SDS_P2;PMS_P1;PMS_P2;Temp;Humidity;BMP_temperature;BMP_pressure;BME280_temperature;BME280_humidity;BME280_pressure;Samples;Min_cycle;Max_cycle;Signal;HPM_P1;HPM_P2
2022/08/09 00:02:07;;;;;;;3.35;2.20;;;21.60;79.90;;;;;;5101398;28;20532;-62
2022/08/09 00:04:33;;;;;;;9.07;2.47;;;21.50;79.80;;;;;;5096789;28;20036;-62
2022/08/09 00:07:00;;;;;;;9.95;3.00;;;21.50;79.90;;;;;;5097163;28;20031;-62
2022/08/09 00:09:25;;;;;;;3.95;2.20;;;21.60;79.90;;;;;;5113136;28;20031;-62
2022/08/09 00:11:51;;;;;;;3.88;1.98;;;21.50;79.90;;;;;;5100887;28;20038;-62
2022/08/09 00:14:17;;;;;;;4.70;2.17;;;21.50;80.00;;;;;;5101934;28;20077;-62
2022/08/09 00:16:43;;;;;;;7.80;3.03;;;21.40;79.90;;;;;;5095491;28;20043;-62
2022/08/09 00:19:09;;;;;;;4.22;2.53;;;21.50;80.20;;;;;;5100020;28;20043;-62
2022/08/09 00:21:36;;;;;;;5.88;2.55;;;21.40;80.20;;;;;;5102374;28;20038;-62
2022/08/09 00:24:02;;;;;;;4.75;2.00;;;21.40;80.30;;;;;;5103428;28;20058;-62
2022/08/09 00:26:29;;;;;;;3.83;2.30;;;21.30;80.30;;;;;;5112268;28;20446;-62
2022/08/09 00:28:55;;;;;;;3.88;2.25;;;21.30;80.40;;;;;;5114360;28;20122;-62
2022/08/09 00:31:22;;;;;;;2.85;2.20;;;21.30;80.50;;;;;;5100746;28;20043;-63
2022/08/09 00:33:49;;;;;;;4.85;2.35;;;21.30;80.60;;;;;;5099641;28;20027;-62
2022/08/09 00:36:15;;;;;;;4.50;2.03;;;21.20;80.70;;;;;;5100800;28;20027;-62
2022/08/09 00:38:40;;;;;;;2.70;1.63;;;21.20;80.60;;;;;;5099652;28;20036;-62
2022/08/09 00:41:06;;;;;;;2.58;1.70;;;21.20;80.40;;;;;;5106323;28;20111;-62
2022/08/09 00:43:35;;;;;;;5.68;1.98;;;21.20;80.00;;;;;;5113481;28;20024;-62
2022/08/09 00:46:02;;;;;;;2.70;1.75;;;21.10;79.50;;;;;;5099806;28;20106;-62
2022/08/09 00:48:31;;;;;;;2.42;1.50;;;21.10;79.00;;;;;;5100147;28;20468;-62
2022/08/09 00:51:02;;;;;;;2.63;1.73;;;21.10;78.80;;;;;;5093838;28;20020;-62
2022/08/09 00:53:29;;;;;;;3.85;2.30;;;21.10;78.70;;;;;;5094605;28;20487;-62
2022/08/09 00:55:54;;;;;;;2.97;1.95;;;21.00;78.90;;;;;;5111830;28;20028;-62
2022/08/09 00:58:23;;;;;;;3.80;2.00;;;21.00;79.30;;;;;;5112748;28;20455;-63
2022/08/09 01:00:53;;;;;;;3.53;1.80;;;21.00;79.00;;;;;;5106650;28;20042;-62
2022/08/09 01:03:59;;;;;;;2.67;1.42;;;20.90;79.10;;;;;;5092984;28;20055;-62
2022/08/09 01:06:47;;;;;;;3.05;1.52;;;21.00;79.50;;;;;;5082566;28;20036;-62
2022/08/09 01:09:18;;;;;;;1.00;1.00;;;20.90;79.60;;;;;;5102697;28;20024;-62
2022/08/09 01:11:56;;;;;;;1.60;1.50;;;20.90;79.70;;;;;;5098056;28;20036;-62
2022/08/09 01:14:51;;;;;;;1.27;1.13;;;20.80;79.90;;;;;;5094547;28;20035;-62
2022/08/09 01:17:57;;;;;;;1.77;1.30;;;20.80;79.90;;;;;;5092602;28;20121;-62
2022/08/09 01:20:43;;;;;;;1.50;1.40;;;20.80;79.90;;;;;;5101015;28;20051;-62
2022/08/09 01:23:45;;;;;;;1.58;1.48;;;20.80;80.00;;;;;;5100479;28;20068;-62
2022/08/09 01:26:40;;;;;;;1.75;1.58;;;20.70;80.10;;;;;;5109977;28;20020;-62
2022/08/09 01:29:08;;;;;;;2.38;1.70;;;20.70;80.20;;;;;;5093333;28;20044;-62
2022/08/09 01:31:36;;;;;;;2.42;1.27;;;20.70;80.00;;;;;;5091919;28;20115;-62
2022/08/09 01:34:04;;;;;;;1.65;1.25;;;20.60;79.60;;;;;;5093693;28;20024;-62
2022/08/09 01:36:32;;;;;;;2.53;1.95;;;20.60;79.00;;;;;;5094004;28;20421;-62
2022/08/09 01:39:02;;;;;;;72.03;4.10;;;20.60;79.00;;;;;;5092101;28;20040;-62
2022/08/09 01:41:30;;;;;;;6.03;2.28;;;20.60;79.70;;;;;;5093082;28;20548;-62
2022/08/09 01:44:00;;;;;;;9.88;2.70;;;20.50;79.60;;;;;;5095026;28;20036;-62
2022/08/09 01:46:40;;;;;;;5.32;3.42;;;20.50;78.90;;;;;;5094539;28;20040;-62
2022/08/09 01:49:11;;;;;;;112.00;5.45;;;20.50;78.40;;;;;;5097354;28;21592;-62
2022/08/09 01:51:49;;;;;;;4.95;2.88;;;20.50;77.90;;;;;;5095289;28;20031;-62
2022/08/09 01:54:17;;;;;;;10.40;2.55;;;20.40;77.60;;;;;;5097349;28;20107;-62
2022/08/09 01:56:45;;;;;;;49.05;3.50;;;20.40;77.50;;;;;;5097771;28;20043;-62
2022/08/09 01:59:14;;;;;;;18.45;3.33;;;20.40;77.70;;;;;;5098442;28;20074;-62
2022/08/09 02:01:42;;;;;;;1.90;1.70;;;20.30;78.00;;;;;;5099421;28;20084;-62
2022/08/09 02:04:11;;;;;;;3.17;1.92;;;20.30;78.00;;;;;;5098774;28;20106;-62
2022/08/09 02:09:25;;;;;;;3.35;2.33;;;20.20;77.40;;;;;;5101909;28;20118;-62
2022/08/09 02:11:52;;;;;;;6.97;1.65;;;20.20;77.60;;;;;;5102943;28;20027;-62
2022/08/09 02:14:20;;;;;;;7.05;3.03;;;20.10;78.20;;;;;;5111582;28;20027;-62
2022/08/09 02:16:47;;;;;;;206.27;7.47;;;20.10;77.30;;;;;;5102109;28;20034;-62
2022/08/09 02:19:13;;;;;;;299.30;8.00;;;20.10;77.20;;;;;;5101007;28;20044;-62
2022/08/09 02:21:43;;;;;;;28.30;4.97;;;20.10;77.30;;;;;;5094185;28;20024;-62
2022/08/09 02:24:13;;;;;;;8.70;4.20;;;20.00;77.40;;;;;;5107330;28;20032;-62
2022/08/09 02:26:40;;;;;;;10.20;3.60;;;20.00;77.20;;;;;;5109144;28;20063;-62
2022/08/09 02:29:20;;;;;;;11.55;2.83;;;20.00;77.30;;;;;;5097079;28;20028;-62
2022/08/09 02:31:50;;;;;;;4.00;2.40;;;19.90;77.20;;;;;;5097097;28;20044;-62
2022/08/09 02:34:19;;;;;;;6.10;3.08;;;19.90;77.30;;;;;;5096399;28;20403;-62
2022/08/09 02:36:50;;;;;;;4.43;2.25;;;19.90;77.20;;;;;;5105984;28;20040;-62
2022/08/09 02:39:20;;;;;;;4.22;2.50;;;19.90;77.20;;;;;;5099391;28;20044;-62
2022/08/09 02:41:52;;;;;;;5.03;3.28;;;19.80;77.50;;;;;;5096755;28;20035;-62
2022/08/09 02:44:21;;;;;;;7.38;4.68;;;19.80;77.60;;;;;;5097964;28;20486;-62
2022/08/09 02:46:52;;;;;;;3.67;2.80;;;19.70;77.90;;;;;;5097505;28;20025;-62
2022/08/09 02:49:18;;;;;;;4.18;1.83;;;19.70;78.50;;;;;;5097589;28;20094;-62
2022/08/09 02:51:48;;;;;;;2.78;2.10;;;19.70;78.90;;;;;;5096277;28;20496;-62
2022/08/09 02:54:15;;;;;;;2.50;1.48;;;19.70;79.10;;;;;;5096212;28;20030;-62
2022/08/09 02:56:48;;;;;;;7.43;2.08;;;19.70;78.80;;;;;;5096137;28;20511;-62
2022/08/09 02:59:15;;;;;;;3.03;1.80;;;19.70;78.60;;;;;;5105562;28;20062;-62
2022/08/09 03:01:43;;;;;;;3.33;2.20;;;19.60;78.60;;;;;;5102057;28;20039;-62
2022/08/09 03:04:11;;;;;;;7.55;3.70;;;19.70;78.20;;;;;;5103849;28;20444;-62
2022/08/09 03:06:39;;;;;;;6.18;3.50;;;19.60;77.80;;;;;;5101947;28;20480;-62
2022/08/09 03:09:06;;;;;;;6.88;3.03;;;19.60;77.90;;;;;;5096716;28;20149;-62
2022/08/09 03:11:32;;;;;;;5.03;2.15;;;19.50;77.40;;;;;;5100124;28;20034;-62
2022/08/09 03:13:59;;;;;;;6.30;2.15;;;19.50;77.20;;;;;;5096271;28;20437;-62
2022/08/09 03:16:26;;;;;;;2.35;1.40;;;19.50;77.30;;;;;;5098606;28;20677;-62
2022/08/09 03:18:52;;;;;;;1.08;1.08;;;19.50;77.60;;;;;;5097573;28;20094;-62
2022/08/09 03:21:19;;;;;;;2.58;1.15;;;19.50;77.90;;;;;;5097252;28;20039;-62
2022/08/09 03:23:45;;;;;;;2.90;1.13;;;19.40;78.10;;;;;;5094759;28;20032;-62
2022/08/09 03:26:16;;;;;;;1.17;1.00;;;19.50;78.20;;;;;;5111567;28;20039;-62
2022/08/09 03:28:43;;;;;;;2.20;1.50;;;19.40;78.40;;;;;;5104862;28;20479;-62
2022/08/09 03:31:09;;;;;;;9.07;1.98;;;19.40;78.60;;;;;;5108006;28;20020;-62
2022/08/09 03:33:36;;;;;;;24.98;2.53;;;19.40;78.80;;;;;;5095297;28;20059;-62
2022/08/09 03:36:03;;;;;;;18.05;2.60;;;19.40;79.00;;;;;;5099197;28;20027;-62
2022/08/09 03:38:29;;;;;;;12.15;2.80;;;19.30;79.30;;;;;;5103503;28;20487;-62
2022/08/09 03:40:56;;;;;;;32.63;1.73;;;19.30;79.50;;;;;;5108372;28;20020;-62
2022/08/09 03:43:22;;;;;;;3.25;1.67;;;19.30;79.80;;;;;;5095573;28;20046;-62
2022/08/09 03:45:48;;;;;;;2.45;1.60;;;19.20;79.80;;;;;;5107980;28;20016;-62
2022/08/09 03:48:13;;;;;;;26.35;2.22;;;19.30;80.00;;;;;;5095535;28;20456;-62
2022/08/09 03:50:41;;;;;;;13.45;2.10;;;19.30;80.20;;;;;;5094305;28;20012;-62
2022/08/09 03:53:17;;;;;;;20.63;2.28;;;19.20;80.30;;;;;;5095439;28;20394;-62
2022/08/09 03:55:46;;;;;;;68.18;3.13;;;19.20;80.30;;;;;;5107620;28;20031;-62
2022/08/09 03:58:12;;;;;;;14.73;2.20;;;19.20;80.30;;;;;;5107106;28;20171;-62
2022/08/09 04:00:38;;;;;;;16.50;2.60;;;19.20;80.50;;;;;;5101679;28;20019;-62
2022/08/09 04:03:05;;;;;;;6.97;2.25;;;19.10;80.50;;;;;;5114178;28;20032;-62
2022/08/09 04:05:32;;;;;;;11.90;2.05;;;19.10;80.60;;;;;;5094249;28;20483;-62
2022/08/09 04:07:58;;;;;;;60.00;2.17;;;19.10;80.70;;;;;;5104292;28;20028;-62
2022/08/09 04:10:24;;;;;;;31.40;2.15;;;19.00;80.90;;;;;;5109596;28;20024;-62
2022/08/09 04:12:52;;;;;;;17.00;2.03;;;19.00;81.70;;;;;;5112051;28;20053;-62
2022/08/09 04:15:20;;;;;;;3.95;1.80;;;19.00;81.30;;;;;;5112253;28;20028;-62
2022/08/09 04:17:46;;;;;;;4.55;1.85;;;19.00;81.40;;;;;;5109058;28;20039;-62
2022/08/09 04:20:14;;;;;;;4.88;2.30;;;19.00;81.50;;;;;;5111354;28;20019;-62
2022/08/09 04:22:40;;;;;;;41.25;2.90;;;19.00;81.60;;;;;;5108291;28;20035;-62
2022/08/09 04:25:07;;;;;;;12.18;2.78;;;19.00;81.50;;;;;;5109379;28;20024;-62
2022/08/09 04:27:34;;;;;;;6.43;2.40;;;18.90;81.40;;;;;;5111338;28;20035;-62
2022/08/09 04:30:00;;;;;;;5.28;2.75;;;19.00;81.60;;;;;;5109989;28;20024;-62
2022/08/09 04:32:27;;;;;;;6.70;3.33;;;18.90;81.90;;;;;;5109189;28;20048;-62
2022/08/09 04:34:53;;;;;;;6.47;3.30;;;18.90;81.90;;;;;;5111638;28;20035;-62
2022/08/09 04:37:19;;;;;;;4.68;2.78;;;18.90;82.00;;;;;;5112093;28;20050;-62
2022/08/09 04:39:45;;;;;;;6.03;2.45;;;18.90;82.20;;;;;;5109626;28;20451;-62
2022/08/09 04:42:11;;;;;;;3.17;2.30;;;18.90;82.40;;;;;;5109734;28;20019;-62
2022/08/09 04:44:37;;;;;;;3.08;2.10;;;18.90;82.70;;;;;;5109146;28;20024;-62
2022/08/09 04:47:03;;;;;;;2.45;2.00;;;18.80;82.90;;;;;;5105489;28;20045;-62
2022/08/09 04:49:35;;;;;;;2.70;2.20;;;18.80;83.10;;;;;;5099108;28;20039;-62
2022/08/09 04:52:05;;;;;;;3.10;2.00;;;18.80;83.40;;;;;;5111669;28;20028;-62
2022/08/09 04:54:31;;;;;;;2.72;1.95;;;18.80;83.70;;;;;;5102457;28;20040;-62
2022/08/09 04:56:57;;;;;;;2.85;2.28;;;18.80;83.80;;;;;;5106931;28;20056;-62
2022/08/09 04:59:23;;;;;;;4.00;2.70;;;18.80;83.90;;;;;;5093496;28;20060;-62
2022/08/09 05:01:48;;;;;;;2.70;2.35;;;18.70;84.00;;;;;;5093165;28;20064;-62
2022/08/09 05:04:14;;;;;;;3.70;2.22;;;18.80;84.10;;;;;;5096350;28;20035;-62
2022/08/09 05:06:42;;;;;;;5.32;3.35;;;18.80;84.20;;;;;;5100220;28;20416;-62
2022/08/09 05:09:08;;;;;;;3.40;2.28;;;18.70;84.30;;;;;;5097460;28;20094;-62
2022/08/09 05:11:35;;;;;;;4.15;2.40;;;18.70;84.40;;;;;;5095630;28;20482;-66
2022/08/09 05:14:01;;;;;;;7.57;2.50;;;18.70;84.30;;;;;;5103889;28;20510;-63
2022/08/09 05:16:26;;;;;;;4.07;2.22;;;18.70;84.70;;;;;;5107078;28;20043;-62
2022/08/09 05:18:52;;;;;;;7.65;2.25;;;18.70;84.60;;;;;;5105228;28;20036;-62
2022/08/09 05:21:18;;;;;;;7.20;2.25;;;18.70;84.70;;;;;;5110087;28;20038;-62
2022/08/09 05:23:43;;;;;;;2.10;1.45;;;18.70;84.70;;;;;;5101408;28;20119;-62
2022/08/09 05:26:09;;;;;;;2.00;1.55;;;18.70;85.10;;;;;;5099093;28;20028;-62
2022/08/09 05:28:35;;;;;;;5.75;2.08;;;18.70;85.70;;;;;;5113164;28;20040;-62
2022/08/09 05:31:04;;;;;;;8.15;2.08;;;18.70;86.00;;;;;;5095969;28;20158;-62
2022/08/09 05:33:29;;;;;;;4.43;1.85;;;18.70;86.40;;;;;;5104603;28;20522;-62
2022/08/09 05:35:55;;;;;;;3.65;1.73;;;18.80;86.70;;;;;;5095588;28;20098;-62
2022/08/09 05:38:21;;;;;;;5.78;2.65;;;18.70;87.00;;;;;;5110004;28;20517;-62
2022/08/09 05:40:46;;;;;;;3.25;2.10;;;18.80;87.50;;;;;;5109232;28;20374;-62
2022/08/09 05:43:12;;;;;;;3.85;2.33;;;18.80;87.90;;;;;;5096676;28;20554;-62
2022/08/09 05:45:38;;;;;;;4.05;2.40;;;18.80;88.30;;;;;;5099160;28;20027;-62
2022/08/09 05:48:04;;;;;;;4.75;2.42;;;18.80;88.60;;;;;;5098855;28;20083;-62
2022/08/09 05:50:30;;;;;;;5.78;2.58;;;18.80;89.10;;;;;;5094846;28;20027;-62
2022/08/09 05:52:55;;;;;;;8.10;3.50;;;18.90;89.50;;;;;;5092929;28;20383;-62
2022/08/09 05:55:21;;;;;;;5.45;2.42;;;18.90;89.90;;;;;;5100134;28;20440;-62
2022/08/09 05:57:49;;;;;;;3.90;2.58;;;19.00;90.00;;;;;;5108874;28;20038;-62
2022/08/09 06:00:14;;;;;;;4.68;3.15;;;19.00;90.50;;;;;;5095557;28;20077;-62
2022/08/09 06:02:40;;;;;;;9.90;2.75;;;19.00;90.40;;;;;;5100539;28;20024;-61
2022/08/09 06:05:07;;;;;;;5.35;2.83;;;19.10;90.60;;;;;;5099946;28;20034;-61
2022/08/09 06:07:34;;;;;;;4.15;2.50;;;19.10;90.80;;;;;;5100986;28;20036;-61
2022/08/09 06:10:00;;;;;;;5.50;2.70;;;19.20;90.90;;;;;;5091927;28;20024;-61
2022/08/09 06:12:26;;;;;;;3.47;2.75;;;19.20;91.00;;;;;;5102348;28;20488;-61
2022/08/09 06:14:51;;;;;;;7.25;3.17;;;19.20;91.00;;;;;;5108696;28;20024;-61
2022/08/09 06:17:17;;;;;;;5.35;2.92;;;19.30;91.10;;;;;;5112007;28;20047;-61
2022/08/09 06:19:43;;;;;;;5.15;2.60;;;19.30;91.10;;;;;;5106689;28;20035;-61
2022/08/09 06:22:08;;;;;;;5.57;2.58;;;19.40;91.10;;;;;;5101357;28;20020;-62
2022/08/09 06:24:34;;;;;;;7.32;2.67;;;19.50;91.10;;;;;;5098305;28;20035;-62
2022/08/09 06:27:00;;;;;;;9.48;3.03;;;19.50;91.10;;;;;;5102457;28;20040;-62
2022/08/09 06:29:25;;;;;;;6.20;2.78;;;19.60;90.80;;;;;;5106072;28;20101;-61
2022/08/09 06:31:51;;;;;;;4.93;3.17;;;19.60;90.90;;;;;;5092475;28;20052;-62
2022/08/09 06:34:17;;;;;;;6.50;2.60;;;19.60;90.70;;;;;;5091248;28;20035;-62
2022/08/09 06:36:43;;;;;;;7.82;3.38;;;19.60;90.60;;;;;;5101192;28;20040;-63
2022/08/09 06:39:10;;;;;;;5.38;2.55;;;19.60;90.60;;;;;;5102557;28;20036;-61
2022/08/09 06:41:37;;;;;;;4.72;1.70;;;19.70;90.50;;;;;;5098551;28;20032;-62
2022/08/09 06:44:09;;;;;;;12.07;1.90;;;19.70;90.30;;;;;;5101415;28;20443;-62
2022/08/09 06:46:36;;;;;;;4.22;1.92;;;19.70;90.00;;;;;;5106905;28;20031;-62
2022/08/09 06:49:02;;;;;;;3.80;1.90;;;19.70;90.10;;;;;;5101311;28;20039;-62
2022/08/09 06:51:32;;;;;;;5.72;2.10;;;19.80;90.20;;;;;;5108822;28;20051;-62
2022/08/09 06:53:58;;;;;;;3.92;1.70;;;19.80;90.20;;;;;;5109034;28;20081;-62
2022/08/09 06:56:23;;;;;;;6.88;1.70;;;19.80;90.30;;;;;;5102191;28;20052;-62
2022/08/09 06:58:49;;;;;;;2.97;1.70;;;19.90;90.20;;;;;;5107255;28;20031;-62
2022/08/09 07:01:15;;;;;;;2.80;1.23;;;19.90;90.10;;;;;;5109291;28;20069;-62
2022/08/09 07:03:40;;;;;;;3.70;1.55;;;20.00;89.60;;;;;;5109294;28;20023;-62
2022/08/09 07:06:06;;;;;;;2.15;1.30;;;20.00;89.20;;;;;;5108682;28;20028;-62
2022/08/09 07:08:34;;;;;;;2.47;1.33;;;20.00;88.40;;;;;;5102931;28;20038;-62
2022/08/09 07:11:01;;;;;;;2.67;1.40;;;20.10;88.70;;;;;;5109226;28;20054;-62
2022/08/09 07:13:30;;;;;;;1.80;1.38;;;20.10;89.30;;;;;;5110598;28;20027;-62
2022/08/09 07:15:57;;;;;;;3.85;1.35;;;20.10;88.40;;;;;;5108728;28;20032;-62
2022/08/09 07:18:26;;;;;;;3.80;1.40;;;20.20;88.30;;;;;;5104974;28;20631;-62
2022/08/09 07:20:52;;;;;;;4.53;1.15;;;20.20;87.70;;;;;;5107430;28;20045;-62
2022/08/09 07:23:17;;;;;;;4.10;1.38;;;20.30;87.20;;;;;;5107767;28;20028;-62
2022/08/09 07:25:43;;;;;;;4.18;1.42;;;20.30;87.10;;;;;;5109389;28;20609;-62
2022/08/09 07:28:11;;;;;;;4.43;1.70;;;20.40;87.90;;;;;;5108684;28;20032;-62
2022/08/09 07:30:37;;;;;;;2.20;1.00;;;20.40;87.60;;;;;;5107114;27;20066;-62
2022/08/09 07:33:03;;;;;;;3.03;0.98;;;20.40;87.00;;;;;;5106731;28;20039;-62
2022/08/09 07:35:29;;;;;;;2.63;1.13;;;20.50;87.00;;;;;;5106657;28;20426;-62
2022/08/09 07:37:54;;;;;;;2.92;1.00;;;20.50;87.30;;;;;;5106848;28;20031;-62
2022/08/09 07:40:20;;;;;;;3.15;1.45;;;20.60;87.40;;;;;;5107042;28;20055;-62
2022/08/09 07:42:50;;;;;;;4.50;1.60;;;20.60;87.30;;;;;;5103839;28;20031;-62
2022/08/09 07:45:16;;;;;;;2.38;1.17;;;20.70;87.10;;;;;;5108642;28;20027;-62
2022/08/09 07:47:41;;;;;;;2.47;1.20;;;20.70;87.00;;;;;;5107430;28;20030;-62
2022/08/09 07:50:07;;;;;;;3.88;1.20;;;20.80;87.80;;;;;;5106779;27;20836;-62
2022/08/09 07:52:33;;;;;;;3.20;1.10;;;20.80;87.30;;;;;;5107172;28;20043;-62
2022/08/09 07:54:59;;;;;;;3.97;1.35;;;20.80;87.60;;;;;;5105266;28;20110;-62
2022/08/09 07:57:24;;;;;;;4.03;1.30;;;20.80;87.60;;;;;;5107408;28;20028;-62
2022/08/09 07:59:50;;;;;;;3.45;1.63;;;21.00;87.70;;;;;;5107424;28;20028;-62
2022/08/09 08:02:15;;;;;;;2.65;1.15;;;21.00;87.70;;;;;;5107688;28;20034;-62
2022/08/09 08:04:41;;;;;;;1.50;0.98;;;21.10;87.50;;;;;;5105005;28;20050;-62
2022/08/09 08:07:07;;;;;;;1.95;0.95;;;21.20;87.60;;;;;;5106481;28;20036;-62
2022/08/09 08:09:32;;;;;;;2.53;1.00;;;21.30;87.50;;;;;;5108392;28;20026;-62
2022/08/09 08:11:58;;;;;;;2.70;1.23;;;21.30;86.60;;;;;;5106671;28;20491;-62
2022/08/09 08:14:24;;;;;;;1.00;0.80;;;21.40;86.50;;;;;;5107215;28;20434;-62
2022/08/09 08:16:50;;;;;;;2.00;0.80;;;21.40;86.50;;;;;;5107371;28;20035;-62
2022/08/09 08:19:15;;;;;;;1.38;1.00;;;21.50;86.20;;;;;;5107950;28;20035;-61
2022/08/09 08:21:41;;;;;;;2.13;0.82;;;21.50;86.00;;;;;;5102313;28;20079;-62
2022/08/09 08:24:07;;;;;;;1.30;0.95;;;21.50;85.50;;;;;;5105783;28;20065;-61
2022/08/09 08:26:32;;;;;;;0.93;0.60;;;21.60;85.80;;;;;;5105284;28;20038;-62
2022/08/09 08:28:58;;;;;;;1.70;0.80;;;21.60;85.70;;;;;;5109910;28;20032;-62
2022/08/09 08:31:24;;;;;;;2.05;0.95;;;21.70;85.30;;;;;;5105158;28;20035;-62
2022/08/09 08:33:49;;;;;;;3.00;1.00;;;21.70;85.20;;;;;;5105686;28;20122;-62
2022/08/09 08:36:15;;;;;;;2.70;0.95;;;21.70;85.40;;;;;;5102224;28;20161;-62
2022/08/09 08:38:41;;;;;;;0.80;0.73;;;21.80;85.60;;;;;;5105356;28;20118;-62
2022/08/09 08:41:07;;;;;;;1.38;0.80;;;21.80;85.50;;;;;;5107242;28;20031;-62
2022/08/09 08:43:33;;;;;;;1.95;0.90;;;21.90;85.30;;;;;;5105880;28;20484;-62
2022/08/09 08:46:04;;;;;;;1.73;0.90;;;21.90;85.70;;;;;;5105197;28;20053;-62
2022/08/09 08:48:31;;;;;;;4.85;1.20;;;22.00;85.70;;;;;;5107499;28;20036;-62
2022/08/09 08:50:57;;;;;;;2.15;0.88;;;22.00;85.60;;;;;;5104805;28;20030;-62
2022/08/09 08:53:23;;;;;;;1.25;0.60;;;22.10;85.40;;;;;;5103631;28;20039;-62
2022/08/09 08:55:49;;;;;;;2.13;0.85;;;22.10;85.20;;;;;;5104187;28;20463;-62
2022/08/09 08:58:15;;;;;;;8.60;0.70;;;22.20;84.90;;;;;;5102643;28;20120;-62
2022/08/09 09:00:43;;;;;;;1.25;0.70;;;22.20;84.90;;;;;;5104082;28;20024;-62
2022/08/09 09:03:10;;;;;;;1.13;0.88;;;22.30;85.10;;;;;;5103230;28;20034;-62
2022/08/09 09:05:37;;;;;;;1.75;0.80;;;22.30;85.00;;;;;;5106036;28;20510;-62
2022/08/09 09:08:03;;;;;;;1.35;0.93;;;22.40;84.90;;;;;;5103953;28;20107;-62
2022/08/09 09:10:30;;;;;;;3.20;0.80;;;22.40;84.90;;;;;;5104633;28;20146;-62
2022/08/09 09:12:56;;;;;;;6.78;0.90;;;22.50;84.90;;;;;;5108238;28;20057;-62
2022/08/09 09:15:22;;;;;;;0.95;0.70;;;22.50;85.40;;;;;;5104031;28;20032;-62
2022/08/09 09:17:48;;;;;;;2.33;0.70;;;22.60;84.90;;;;;;5108393;28;20043;-62
2022/08/09 09:20:14;;;;;;;1.75;0.80;;;22.60;84.70;;;;;;5109805;28;20023;-62
2022/08/09 09:22:57;;;;;;;3.55;0.90;;;22.70;84.70;;;;;;5103864;28;20032;-64
2022/08/09 09:25:33;;;;;;;0.65;0.52;;;22.70;84.10;;;;;;5108596;28;20084;-62
2022/08/09 09:27:59;;;;;;;2.20;0.50;;;22.70;84.40;;;;;;5104609;28;20085;-62
2022/08/09 09:30:28;;;;;;;0.88;0.70;;;22.80;84.00;;;;;;5106232;28;20039;-62
2022/08/09 09:33:11;;;;;;;1.55;0.80;;;22.80;84.60;;;;;;5103449;28;20039;-62
2022/08/09 09:35:57;;;;;;;0.55;0.55;;;22.80;83.40;;;;;;5105154;28;20035;-62
2022/08/09 09:38:37;;;;;;;2.08;0.80;;;22.90;83.50;;;;;;5107090;28;20359;-66
2022/08/09 09:41:03;;;;;;;0.68;0.50;;;22.90;83.50;;;;;;5100215;27;20035;-62
2022/08/09 09:43:30;;;;;;;2.33;0.60;;;22.90;82.80;;;;;;5098932;28;20032;-62
2022/08/09 09:45:56;;;;;;;4.95;0.60;;;23.00;83.10;;;;;;5104002;28;20127;-61
2022/08/09 09:48:22;;;;;;;2.63;0.70;;;23.00;82.90;;;;;;5108813;28;20907;-62
2022/08/09 09:50:50;;;;;;;0.73;0.40;;;23.10;82.80;;;;;;5105465;28;20049;-62
2022/08/09 09:53:18;;;;;;;3.55;0.82;;;23.10;83.40;;;;;;5109678;28;20031;-62
2022/08/09 09:55:59;;;;;;;6.60;0.65;;;23.20;82.90;;;;;;5105292;28;20032;-62
2022/08/09 09:58:46;;;;;;;0.65;0.57;;;23.20;82.70;;;;;;5107626;28;20074;-61
2022/08/09 10:01:21;;;;;;;0.80;0.60;;;23.30;82.80;;;;;;5110829;28;20038;-62
2022/08/09 10:03:51;;;;;;;1.65;0.60;;;23.30;82.50;;;;;;5105927;28;20035;-62
2022/08/09 10:06:18;;;;;;;1.58;1.00;;;23.20;82.50;;;;;;5099810;28;20031;-62
2022/08/09 10:08:48;;;;;;;1.70;0.70;;;23.30;82.60;;;;;;5101797;28;20533;-62
2022/08/09 10:11:24;;;;;;;8.15;0.85;;;23.30;82.70;;;;;;5091689;28;20020;-62
2022/08/09 10:13:52;;;;;;;0.57;0.57;;;23.40;82.60;;;;;;5104448;28;20032;-62
2022/08/09 10:16:32;;;;;;;3.75;0.95;;;23.30;83.00;;;;;;5098847;28;20085;-62
2022/08/09 10:19:05;;;;;;;2.00;0.70;;;23.40;82.20;;;;;;5107403;28;20046;-62
2022/08/09 10:21:31;;;;;;;0.68;0.60;;;23.40;82.10;;;;;;5106570;28;20059;-62
2022/08/09 10:24:02;;;;;;;0.80;0.57;;;23.40;82.20;;;;;;5103594;28;20065;-62
2022/08/09 10:26:28;;;;;;;1.30;0.70;;;23.50;81.30;;;;;;5106348;28;20032;-62
2022/08/09 10:28:56;;;;;;;2.42;0.82;;;23.50;81.60;;;;;;5098545;28;20059;-62
2022/08/09 10:31:22;;;;;;;2.85;0.80;;;23.50;81.60;;;;;;5106392;28;20032;-65
2022/08/09 10:33:49;;;;;;;6.75;0.77;;;23.50;81.90;;;;;;5099926;28;20131;-62
2022/08/09 10:36:15;;;;;;;1.23;0.70;;;23.50;80.90;;;;;;5097306;28;20047;-62
2022/08/09 10:38:46;;;;;;;2.22;0.80;;;23.60;81.40;;;;;;5107165;28;20644;-62
2022/08/09 10:41:13;;;;;;;2.35;0.90;;;23.60;80.80;;;;;;5104853;28;20111;-62
2022/08/09 10:43:45;;;;;;;2.60;0.65;;;23.70;80.90;;;;;;5109856;28;20546;-62
2022/08/09 10:46:47;;;;;;;0.70;0.70;;;23.80;80.40;;;;;;5109070;28;20115;-62
2022/08/09 10:49:18;;;;;;;1.60;0.90;;;23.80;80.90;;;;;;5113506;28;20034;-62
2022/08/09 10:52:05;;;;;;;0.70;0.50;;;23.90;80.80;;;;;;5111615;28;20024;-62
2022/08/09 10:54:31;;;;;;;2.55;0.90;;;23.90;81.00;;;;;;5110793;28;20023;-62
2022/08/09 10:57:08;;;;;;;4.05;0.57;;;23.90;80.70;;;;;;5112095;28;20364;-62
2022/08/09 10:59:36;;;;;;;3.17;0.70;;;23.90;79.90;;;;;;5109798;28;20046;-62
2022/08/09 11:02:04;;;;;;;1.83;0.68;;;24.00;80.10;;;;;;5108825;28;20020;-62
2022/08/09 11:04:31;;;;;;;1.15;1.00;;;24.00;80.20;;;;;;5112802;28;20031;-62
2022/08/09 11:06:59;;;;;;;0.73;0.70;;;24.00;79.80;;;;;;5111870;28;20430;-62
2022/08/09 11:09:37;;;;;;;2.78;0.70;;;24.00;79.60;;;;;;5113123;28;20031;-62
2022/08/09 11:12:23;;;;;;;1.25;0.63;;;24.00;79.90;;;;;;5109022;28;20036;-61
2022/08/09 11:14:57;;;;;;;1.63;0.52;;;24.00;79.60;;;;;;5107772;28;20115;-61
2022/08/09 11:17:23;;;;;;;0.63;0.63;;;24.00;79.70;;;;;;5109635;28;20027;-62
2022/08/09 11:20:09;;;;;;;3.72;0.60;;;24.10;79.60;;;;;;5101312;28;20443;-62
2022/08/09 11:22:43;;;;;;;2.45;0.73;;;24.10;80.50;;;;;;5107467;28;20020;-62
2022/08/09 11:25:10;;;;;;;3.70;0.60;;;24.10;79.90;;;;;;5109699;28;20742;-62
2022/08/09 11:27:38;;;;;;;2.40;0.63;;;24.10;79.60;;;;;;5108607;28;20059;-62
2022/08/09 11:30:08;;;;;;;1.15;0.73;;;24.10;79.40;;;;;;5112714;28;20111;-62
2022/08/09 11:33:04;;;;;;;0.65;0.65;;;24.10;79.80;;;;;;5107861;28;20078;-61
2022/08/09 11:35:46;;;;;;;1.20;0.50;;;24.10;79.70;;;;;;5072876;28;20031;-62
2022/08/09 11:38:20;;;;;;;2.30;0.70;;;24.20;79.30;;;;;;5105049;28;20044;-62
2022/08/09 11:40:46;;;;;;;3.70;0.75;;;24.10;78.90;;;;;;5106975;28;20131;-62
2022/08/09 11:43:38;;;;;;;2.47;0.60;;;24.20;78.40;;;;;;5101819;28;20484;-63
2022/08/09 11:46:05;;;;;;;2.05;0.63;;;24.20;77.90;;;;;;5094861;28;20028;-63
2022/08/09 11:48:47;;;;;;;1.17;0.55;;;24.30;79.10;;;;;;5105260;28;20035;-62
2022/08/09 11:51:12;;;;;;;5.70;1.17;;;24.30;78.40;;;;;;5107507;28;20379;-62
2022/08/09 11:53:40;;;;;;;0.60;0.60;;;24.30;78.70;;;;;;5103235;28;20039;-62
2022/08/09 11:56:19;;;;;;;0.70;0.60;;;24.30;76.80;;;;;;5102227;28;20453;-62
2022/08/09 11:58:59;;;;;;;1.20;0.63;;;24.40;75.50;;;;;;5097884;28;20391;-62
2022/08/09 12:01:33;;;;;;;7.63;1.30;;;24.40;74.70;;;;;;5096639;28;20471;-62
2022/08/09 12:04:05;;;;;;;5.38;0.70;;;24.30;74.00;;;;;;5097555;28;20036;-62
2022/08/09 12:06:32;;;;;;;0.73;0.70;;;24.40;74.00;;;;;;5101227;28;20066;-62
2022/08/09 12:08:59;;;;;;;2.55;0.68;;;24.40;73.70;;;;;;5094483;28;20046;-62
2022/08/09 12:11:26;;;;;;;3.92;0.73;;;24.40;73.90;;;;;;5099844;28;20507;-62
2022/08/09 12:13:57;;;;;;;10.95;0.85;;;24.50;73.60;;;;;;5104802;28;20047;-62
2022/08/09 12:16:28;;;;;;;0.65;0.65;;;24.50;73.50;;;;;;5094510;28;20024;-62
2022/08/09 12:18:54;;;;;;;1.60;0.73;;;24.50;73.60;;;;;;5104676;28;20479;-62
2022/08/09 12:21:29;;;;;;;1.00;0.63;;;24.50;73.50;;;;;;5105241;28;20020;-62
2022/08/09 12:23:56;;;;;;;2.65;0.47;;;24.50;73.40;;;;;;5104280;28;20042;-62
2022/08/09 12:26:22;;;;;;;3.50;0.80;;;24.60;73.40;;;;;;5113822;28;20088;-62
2022/08/09 12:28:53;;;;;;;3.47;0.88;;;24.60;73.50;;;;;;5114510;28;20091;-62
2022/08/09 12:31:28;;;;;;;0.47;0.45;;;24.60;73.50;;;;;;5094808;28;20078;-62
2022/08/09 12:33:55;;;;;;;1.13;0.90;;;24.60;73.60;;;;;;5094542;28;20376;-62
2022/08/09 12:36:22;;;;;;;0.95;0.60;;;24.70;73.20;;;;;;5113715;28;20024;-62
2022/08/09 12:38:52;;;;;;;0.47;0.47;;;24.70;72.60;;;;;;5099355;28;20040;-62
2022/08/09 12:41:27;;;;;;;0.70;0.70;;;24.70;72.80;;;;;;5113993;28;20073;-62
2022/08/09 12:43:54;;;;;;;0.60;0.60;;;24.70;71.90;;;;;;5098569;28;20036;-62
2022/08/09 12:46:20;;;;;;;0.55;0.55;;;24.70;72.00;;;;;;5093465;28;20012;-62
2022/08/09 12:48:47;;;;;;;1.23;0.95;;;24.80;72.00;;;;;;5093968;28;20036;-62
2022/08/09 12:51:13;;;;;;;0.55;0.50;;;24.70;72.00;;;;;;5095476;28;20054;-62
2022/08/09 12:53:40;;;;;;;1.15;0.43;;;24.80;71.80;;;;;;5094322;28;20028;-62
2022/08/09 12:56:09;;;;;;;1.48;0.75;;;24.90;72.00;;;;;;5094573;28;20506;-62
2022/08/09 12:58:35;;;;;;;0.70;0.70;;;24.90;71.40;;;;;;5095473;28;20040;-62